CFG8DC EDDF-LEPA
Flight info
| Callsign | CFG8DC |
|---|---|
| Flight time | N/A |
| Altitude | 35000 |
| Route | ANEKI2L/18 ANEKI Y163 HERBI Y164 MOPAN DCT LUTIX DCT BENOT DCT NEMOS DCT GEVEA DCT INCUS DCT BALSI DCT RETNO DCT TUPOX DCT MTG DCT DIVKO DCT VATIR DCT PIVUS N852 VERSO L129 LUNIK |
| Aircraft | A21N/M-SBDE3FGHIJ1J4J7LORVWXYZ/SB2D1G1 |
Departure
| Time | N/A |
|---|---|
| Airport | Frankfurt Main Airport (EDDF) |
Arrival
| Time | 2026-05-05 10:50 |
|---|---|
| Airport | Palma de Mallorca Airport (LEPA) |
| Time | Latitude | Longitude | Altitude | Speed | Heading |
|---|---|---|---|---|---|
| 2026-05-05 09:57 | 44.07798 | 5.45868 | 34939 ft | 393 kts | 206° |
| 2026-05-05 09:58 | 44.02914 | 5.42495 | 34940 ft | 390 kts | 211° |
| 2026-05-05 09:58 | 43.98129 | 5.38980 | 34939 ft | 390 kts | 211° |
| 2026-05-05 09:59 | 43.93314 | 5.35460 | 34940 ft | 391 kts | 211° |
| 2026-05-05 09:59 | 43.88491 | 5.31953 | 34945 ft | 391 kts | 211° |
| 2026-05-05 10:00 | 43.83687 | 5.28465 | 34944 ft | 390 kts | 211° |
| 2026-05-05 10:00 | 43.78888 | 5.24993 | 34939 ft | 391 kts | 211° |
| 2026-05-05 10:01 | 43.74065 | 5.21510 | 34943 ft | 390 kts | 211° |
| 2026-05-05 10:01 | 43.69254 | 5.18042 | 34940 ft | 390 kts | 211° |
| 2026-05-05 10:02 | 43.64467 | 5.14596 | 34940 ft | 391 kts | 211° |
| 2026-05-05 10:02 | 43.59644 | 5.11136 | 34945 ft | 391 kts | 211° |
| 2026-05-05 10:03 | 43.54832 | 5.07682 | 34942 ft | 390 kts | 211° |
| 2026-05-05 10:03 | 43.49993 | 5.04221 | 34942 ft | 390 kts | 211° |
| 2026-05-05 10:04 | 43.45184 | 5.00784 | 34938 ft | 390 kts | 211° |
| 2026-05-05 10:04 | 43.40370 | 4.97353 | 34943 ft | 390 kts | 211° |
| 2026-05-05 10:05 | 43.35544 | 4.93918 | 34947 ft | 392 kts | 211° |
| 2026-05-05 10:05 | 43.30716 | 4.90487 | 34943 ft | 392 kts | 211° |
| 2026-05-05 10:06 | 43.25894 | 4.87069 | 34949 ft | 392 kts | 211° |
| 2026-05-05 10:06 | 43.21066 | 4.83651 | 34948 ft | 392 kts | 211° |
| 2026-05-05 10:07 | 43.16230 | 4.80233 | 34953 ft | 392 kts | 211° |
| 2026-05-05 10:07 | 43.11377 | 4.76812 | 34943 ft | 391 kts | 211° |
| 2026-05-05 10:08 | 43.06533 | 4.73402 | 34952 ft | 391 kts | 211° |
| 2026-05-05 10:08 | 43.01701 | 4.70005 | 34952 ft | 392 kts | 211° |
| 2026-05-05 10:09 | 42.96869 | 4.66611 | 34954 ft | 395 kts | 211° |
| 2026-05-05 10:09 | 42.91959 | 4.63174 | 34955 ft | 396 kts | 211° |
| 2026-05-05 10:10 | 42.87052 | 4.59745 | 34957 ft | 396 kts | 211° |
| 2026-05-05 10:10 | 42.82133 | 4.56311 | 34955 ft | 396 kts | 211° |
| 2026-05-05 10:11 | 42.77267 | 4.52923 | 34959 ft | 396 kts | 211° |
| 2026-05-05 10:11 | 42.72364 | 4.49513 | 34959 ft | 396 kts | 211° |
| 2026-05-05 10:12 | 42.67437 | 4.46093 | 34956 ft | 396 kts | 211° |
| 2026-05-05 10:12 | 42.62565 | 4.42720 | 34957 ft | 396 kts | 211° |
| 2026-05-05 10:13 | 42.57639 | 4.39311 | 34959 ft | 397 kts | 211° |
| 2026-05-05 10:13 | 42.52749 | 4.35934 | 34957 ft | 397 kts | 212° |
| 2026-05-05 10:14 | 42.47798 | 4.32523 | 34955 ft | 398 kts | 211° |
| 2026-05-05 10:14 | 42.42893 | 4.29146 | 34958 ft | 396 kts | 211° |
| 2026-05-05 10:15 | 42.37999 | 4.25785 | 34961 ft | 397 kts | 211° |
| 2026-05-05 10:15 | 42.33056 | 4.22396 | 34957 ft | 398 kts | 211° |
| 2026-05-05 10:16 | 42.28138 | 4.19029 | 34961 ft | 397 kts | 211° |
| 2026-05-05 10:16 | 42.23186 | 4.15643 | 34966 ft | 398 kts | 211° |
| 2026-05-05 10:17 | 42.18245 | 4.12319 | 34961 ft | 400 kts | 208° |
| 2026-05-05 10:17 | 42.12980 | 4.09917 | 34972 ft | 399 kts | 203° |
| 2026-05-05 10:18 | 42.07684 | 4.07674 | 34974 ft | 399 kts | 203° |
| 2026-05-05 10:18 | 42.02369 | 4.05409 | 34971 ft | 399 kts | 203° |
| 2026-05-05 10:19 | 41.97091 | 4.03155 | 34971 ft | 400 kts | 203° |
| 2026-05-05 10:19 | 41.91777 | 4.00888 | 34975 ft | 400 kts | 203° |
| 2026-05-05 10:20 | 41.86484 | 3.98634 | 34973 ft | 400 kts | 203° |
| 2026-05-05 10:20 | 41.81184 | 3.96377 | 34973 ft | 399 kts | 203° |
| 2026-05-05 10:21 | 41.75926 | 3.94141 | 34972 ft | 399 kts | 203° |
| 2026-05-05 10:21 | 41.70629 | 3.91892 | 34972 ft | 398 kts | 203° |
| 2026-05-05 10:22 | 41.65369 | 3.89664 | 34971 ft | 397 kts | 203° |
| 2026-05-05 10:22 | 41.60071 | 3.87422 | 34970 ft | 398 kts | 203° |
| 2026-05-05 10:23 | 41.54818 | 3.85204 | 34970 ft | 397 kts | 203° |
| 2026-05-05 10:23 | 41.49530 | 3.82974 | 34961 ft | 400 kts | 204° |
| 2026-05-05 10:24 | 41.44227 | 3.80743 | 34956 ft | 401 kts | 204° |
| 2026-05-05 10:24 | 41.38925 | 3.78516 | 34955 ft | 401 kts | 204° |
| 2026-05-05 10:25 | 41.33614 | 3.76288 | 34952 ft | 400 kts | 204° |
| 2026-05-05 10:25 | 41.28302 | 3.74065 | 34947 ft | 400 kts | 204° |
| 2026-05-05 10:26 | 41.23028 | 3.71861 | 34947 ft | 399 kts | 204° |
| 2026-05-05 10:26 | 41.17736 | 3.69653 | 34946 ft | 400 kts | 204° |
| 2026-05-05 10:27 | 41.12392 | 3.67427 | 34892 ft | 400 kts | 204° |
| 2026-05-05 10:27 | 41.09771 | 3.66336 | 34659 ft | 399 kts | 204° |
| 2026-05-05 10:27 | 41.07116 | 3.65235 | 34430 ft | 398 kts | 204° |
| 2026-05-05 10:28 | 41.04462 | 3.64133 | 34198 ft | 398 kts | 204° |
| 2026-05-05 10:28 | 41.01850 | 3.63048 | 33939 ft | 397 kts | 204° |
| 2026-05-05 10:28 | 40.99191 | 3.61944 | 33676 ft | 398 kts | 204° |
| 2026-05-05 10:28 | 40.96543 | 3.60847 | 33384 ft | 399 kts | 204° |
| 2026-05-05 10:29 | 40.93922 | 3.59761 | 32928 ft | 400 kts | 204° |
| 2026-05-05 10:29 | 40.91244 | 3.58653 | 32291 ft | 402 kts | 204° |
| 2026-05-05 10:29 | 40.88561 | 3.57541 | 31568 ft | 402 kts | 204° |
| 2026-05-05 10:29 | 40.85891 | 3.56437 | 30826 ft | 402 kts | 204° |
| 2026-05-05 10:30 | 40.83202 | 3.55330 | 30029 ft | 403 kts | 204° |
| 2026-05-05 10:30 | 40.80517 | 3.54220 | 29243 ft | 404 kts | 204° |
| 2026-05-05 10:30 | 40.77842 | 3.53117 | 28478 ft | 404 kts | 204° |
| 2026-05-05 10:30 | 40.75200 | 3.52031 | 27960 ft | 399 kts | 203° |
| 2026-05-05 10:31 | 40.72582 | 3.50959 | 27450 ft | 394 kts | 204° |
| 2026-05-05 10:31 | 40.69974 | 3.49889 | 26936 ft | 389 kts | 204° |
| 2026-05-05 10:31 | 40.67401 | 3.48833 | 26430 ft | 384 kts | 203° |
| 2026-05-05 10:31 | 40.64871 | 3.47795 | 25928 ft | 380 kts | 203° |
| 2026-05-05 10:32 | 40.62365 | 3.46767 | 25429 ft | 377 kts | 203° |
| 2026-05-05 10:32 | 40.59907 | 3.45760 | 24934 ft | 373 kts | 203° |
| 2026-05-05 10:32 | 40.57433 | 3.44746 | 24439 ft | 370 kts | 203° |
| 2026-05-05 10:32 | 40.54981 | 3.43744 | 23937 ft | 367 kts | 203° |
| 2026-05-05 10:33 | 40.52545 | 3.42748 | 23449 ft | 363 kts | 203° |
| 2026-05-05 10:33 | 40.50164 | 3.41776 | 22960 ft | 361 kts | 202° |
| 2026-05-05 10:33 | 40.47767 | 3.40798 | 22467 ft | 358 kts | 202° |
| 2026-05-05 10:33 | 40.45343 | 3.40019 | 21974 ft | 360 kts | 197° |
| 2026-05-05 10:34 | 40.42851 | 3.39581 | 21481 ft | 361 kts | 191° |
| 2026-05-05 10:34 | 40.40338 | 3.39486 | 20995 ft | 363 kts | 185° |
| 2026-05-05 10:34 | 40.37851 | 3.39598 | 20521 ft | 362 kts | 184° |
| 2026-05-05 10:34 | 40.35336 | 3.39740 | 20041 ft | 360 kts | 184° |
| 2026-05-05 10:35 | 40.32849 | 3.39885 | 19559 ft | 358 kts | 184° |
| 2026-05-05 10:35 | 40.30353 | 3.40029 | 19079 ft | 356 kts | 184° |
| 2026-05-05 10:35 | 40.27906 | 3.40171 | 18621 ft | 352 kts | 184° |
| 2026-05-05 10:35 | 40.25460 | 3.40311 | 18145 ft | 349 kts | 184° |
| 2026-05-05 10:36 | 40.23060 | 3.40448 | 17620 ft | 347 kts | 184° |
| 2026-05-05 10:36 | 40.20642 | 3.40584 | 17112 ft | 345 kts | 184° |
| 2026-05-05 10:36 | 40.18275 | 3.40717 | 16613 ft | 342 kts | 183° |
| 2026-05-05 10:36 | 40.15906 | 3.40832 | 16089 ft | 339 kts | 186° |
| 2026-05-05 10:37 | 40.13645 | 3.40235 | 15506 ft | 327 kts | 209° |
| 2026-05-05 10:37 | 40.11710 | 3.38715 | 15048 ft | 321 kts | 214° |
| 2026-05-05 10:37 | 40.09827 | 3.37238 | 14432 ft | 318 kts | 213° |
| 2026-05-05 10:37 | 40.07916 | 3.35791 | 13703 ft | 317 kts | 212° |
| 2026-05-05 10:38 | 40.06007 | 3.34366 | 12977 ft | 317 kts | 211° |
| 2026-05-05 10:38 | 40.04121 | 3.32974 | 12282 ft | 315 kts | 211° |
| 2026-05-05 10:38 | 40.02217 | 3.31573 | 11570 ft | 313 kts | 210° |
| 2026-05-05 10:38 | 40.00312 | 3.30177 | 10864 ft | 312 kts | 210° |
| 2026-05-05 10:39 | 39.98445 | 3.28812 | 10184 ft | 310 kts | 210° |
| 2026-05-05 10:39 | 39.96583 | 3.27455 | 9748 ft | 299 kts | 210° |
| 2026-05-05 10:39 | 39.94813 | 3.26168 | 9487 ft | 285 kts | 210° |
| 2026-05-05 10:39 | 39.93126 | 3.24942 | 9284 ft | 274 kts | 210° |
| 2026-05-05 10:40 | 39.91476 | 3.23742 | 8999 ft | 268 kts | 210° |
| 2026-05-05 10:40 | 39.89842 | 3.22554 | 8625 ft | 266 kts | 210° |
| 2026-05-05 10:40 | 39.88242 | 3.21391 | 8272 ft | 264 kts | 210° |
| 2026-05-05 10:40 | 39.86649 | 3.20233 | 7922 ft | 262 kts | 210° |
| 2026-05-05 10:41 | 39.85051 | 3.19074 | 7580 ft | 259 kts | 210° |
| 2026-05-05 10:41 | 39.83496 | 3.17946 | 7232 ft | 257 kts | 210° |
| 2026-05-05 10:41 | 39.81925 | 3.16808 | 6884 ft | 255 kts | 210° |
| 2026-05-05 10:41 | 39.80389 | 3.15694 | 6537 ft | 253 kts | 210° |
| 2026-05-05 10:42 | 39.77343 | 3.13487 | 5838 ft | 249 kts | 209° |
| 2026-05-05 10:42 | 39.75847 | 3.12405 | 5497 ft | 248 kts | 209° |
| 2026-05-05 10:42 | 39.74329 | 3.11307 | 5149 ft | 247 kts | 209° |
| 2026-05-05 10:43 | 39.72858 | 3.10208 | 4804 ft | 245 kts | 213° |
| 2026-05-05 10:43 | 39.71491 | 3.08897 | 4526 ft | 242 kts | 219° |
| 2026-05-05 10:43 | 39.70316 | 3.07371 | 4269 ft | 238 kts | 230° |
| 2026-05-05 10:43 | 39.69389 | 3.05640 | 4024 ft | 233 kts | 238° |
| 2026-05-05 10:44 | 39.68588 | 3.03834 | 3774 ft | 229 kts | 239° |
| 2026-05-05 10:44 | 39.67809 | 3.02064 | 3543 ft | 223 kts | 238° |
| 2026-05-05 10:44 | 39.67041 | 3.00375 | 3435 ft | 210 kts | 237° |
| 2026-05-05 10:44 | 39.66312 | 2.98813 | 3358 ft | 194 kts | 237° |
| 2026-05-05 10:45 | 39.65626 | 2.97368 | 3213 ft | 184 kts | 236° |
| 2026-05-05 10:45 | 39.64952 | 2.95960 | 3091 ft | 184 kts | 236° |
| 2026-05-05 10:45 | 39.64275 | 2.94551 | 2985 ft | 184 kts | 236° |
| 2026-05-05 10:45 | 39.63600 | 2.93141 | 2949 ft | 186 kts | 236° |
| 2026-05-05 10:46 | 39.62917 | 2.91712 | 2740 ft | 187 kts | 236° |
| 2026-05-05 10:46 | 39.62233 | 2.90276 | 2488 ft | 187 kts | 236° |
| 2026-05-05 10:46 | 39.61570 | 2.88878 | 2233 ft | 177 kts | 235° |
| 2026-05-05 10:46 | 39.60943 | 2.87557 | 2033 ft | 166 kts | 236° |
| 2026-05-05 10:47 | 39.60365 | 2.86336 | 1797 ft | 151 kts | 235° |
| 2026-05-05 10:47 | 39.59833 | 2.85217 | 1597 ft | 144 kts | 236° |
| 2026-05-05 10:47 | 39.59307 | 2.84113 | 1421 ft | 142 kts | 236° |
| 2026-05-05 10:47 | 39.58797 | 2.83028 | 1246 ft | 141 kts | 237° |
| 2026-05-05 10:48 | 39.58284 | 2.81943 | 1070 ft | 141 kts | 236° |
| 2026-05-05 10:48 | 39.57769 | 2.80879 | 887 ft | 140 kts | 237° |
| 2026-05-05 10:48 | 39.57262 | 2.79797 | 706 ft | 138 kts | 238° |
| 2026-05-05 10:48 | 39.56764 | 2.78756 | 537 ft | 137 kts | 238° |
| 2026-05-05 10:49 | 39.56268 | 2.77705 | 339 ft | 136 kts | 238° |
| 2026-05-05 10:49 | 39.55779 | 2.76663 | 173 ft | 136 kts | 236° |
| 2026-05-05 10:49 | 39.55281 | 2.75614 | 49 ft | 131 kts | 238° |
| 2026-05-05 10:49 | 39.54872 | 2.74756 | 43 ft | 87 kts | 238° |
| 2026-05-05 10:50 | 39.54645 | 2.74272 | 43 ft | 39 kts | 239° |
| 2026-05-05 10:50 | 39.54559 | 2.74018 | 42 ft | 27 kts | 258° |
| 2026-05-05 10:50 | 39.54548 | 2.73834 | 42 ft | 12 kts | 270° |
| 2026-05-05 10:50 | 39.54566 | 2.73737 | 42 ft | 10 kts | 328° |
| 2026-05-05 10:51 | 39.54625 | 2.73781 | 42 ft | 11 kts | 57° |
| 2026-05-05 10:51 | 39.54669 | 2.73871 | 42 ft | 12 kts | 58° |
| 2026-05-05 10:51 | 39.54706 | 2.73942 | 43 ft | 8 kts | 38° |
| 2026-05-05 10:51 | 39.54766 | 2.73940 | 43 ft | 9 kts | 1° |
| 2026-05-05 10:52 | 39.54817 | 2.73991 | 43 ft | 9 kts | 26° |
| 2026-05-05 10:52 | 39.54883 | 2.73967 | 43 ft | 10 kts | 330° |
| 2026-05-05 10:52 | 39.54947 | 2.73918 | 43 ft | 11 kts | 329° |
| 2026-05-05 10:52 | 39.55013 | 2.73866 | 43 ft | 7 kts | 327° |
| 2026-05-05 10:53 | 39.55036 | 2.73820 | 43 ft | 6 kts | 262° |
| 2026-05-05 10:53 | 39.55016 | 2.73763 | 43 ft | 7 kts | 239° |
| 2026-05-05 10:53 | 39.55004 | 2.73737 | 43 ft | 0 kts | 239° |